This is the latest recevied weather packets stored in our database for station/object W5HKR. If no packets are shown the sender has not sent any weather packets the latest 10 day(s).
| Time | Temp. | Humidity | Pressure | Rain* | Wind** | Luminosity | Snow |
|---|---|---|---|---|---|---|---|
| 1778010206 | 29.44° C | 67% | 979.3 hPa | 0 mm | - | - | - |
| 1778009996 | 29.44° C | 67% | 979.6 hPa | 0 mm | - | - | - |
| 1778009907 | 18.33° C | 91% | 990.6 hPa | 0 mm | - | - | - |
| 1778009606 | 29.44° C | 67% | 979.4 hPa | 0 mm | - | - | - |
| 1778009005 | 18.33° C | 91% | 990.6 hPa | 0 mm | - | - | - |
| 1778008917 | 18.33° C | 91% | 990.6 hPa | 0 mm | - | - | - |
| 1778008706 | 18.33° C | 91% | 990.6 hPa | 0 mm | - | - | - |
| 1778008405 | 28.33° C | 71% | 980 hPa | 0 mm | - | - | - |
| 1778008107 | 18.33° C | 91% | 990.6 hPa | 0 mm | - | - | - |
| 1778007836 | 18.33° C | 91% | 990.6 hPa | 0 mm | - | - | - |
| 1778007807 | 18.33° C | 91% | 990.6 hPa | 0 mm | - | - | - |
| 1778007506 | 28.33° C | 71% | 980.6 hPa | 0 mm | - | - | - |
| 1778007206 | 18.33° C | 91% | 990.6 hPa | 0 mm | - | - | - |
| 1778006906 | 18.33° C | 91% | 990.6 hPa | 0 mm | - | - | - |
| 1778006757 | 27.78° C | 73% | 980 hPa | 0 mm | - | - | - |
| 1778006605 | 27.78° C | 73% | 980.4 hPa | 0 mm | - | - | - |
| 1778006307 | 27.22° C | 74% | 980.4 hPa | 0 mm | - | - | - |
| 1778006006 | 18.33° C | 91% | 990.6 hPa | 0 mm | - | - | - |
| 1778005677 | 27.22° C | 73% | 980.4 hPa | 0 mm | - | - | - |
| 1778005407 | 27.22° C | 75% | 980.7 hPa | 0 mm | - | - | - |
| 1778005107 | 18.33° C | 91% | 990.6 hPa | 0 mm | - | - | - |
| 1778004806 | 27.22° C | 74% | 980.4 hPa | 0 mm | - | - | - |
| 1778004597 | 27.22° C | 74% | 980.4 hPa | 0 mm | - | - | - |
| 1778004506 | 18.33° C | 91% | 990.6 hPa | 0 mm | - | - | - |
| 1778003910 | 26.67° C | 76% | 980.8 hPa | 0 mm | - | - | - |
* Rain latest hour (hover to see other rain measurements)
** Current wind speed in m/s (hover to see current wind gust speed)